createdAt,value
2022-09-14T00:01:36.270Z,8.47
2022-09-14T00:04:06.378Z,9.27
2022-09-14T00:06:34.746Z,8.87
2022-09-14T00:09:06.905Z,9.73
2022-09-14T00:11:36.955Z,8.77
2022-09-14T00:14:07.409Z,8.17
2022-09-14T00:16:37.408Z,8.40
2022-09-14T00:19:08.215Z,8.10
2022-09-14T00:21:37.128Z,9.40
2022-09-14T00:24:08.458Z,9.40
2022-09-14T00:26:36.740Z,9.80
2022-09-14T00:29:06.075Z,7.87
2022-09-14T00:31:35.800Z,8.07
2022-09-14T00:34:05.136Z,9.20
2022-09-14T00:36:34.642Z,8.80
2022-09-14T00:39:02.576Z,7.97
2022-09-14T00:41:34.318Z,8.17
2022-09-14T00:44:04.954Z,8.17
2022-09-14T00:46:36.674Z,8.40
2022-09-14T00:49:08.744Z,8.80
2022-09-14T00:51:40.845Z,8.87
2022-09-14T00:54:09.465Z,8.70
2022-09-14T00:56:38.976Z,8.80
2022-09-14T00:59:14.273Z,8.40
2022-09-14T01:01:42.699Z,8.83
2022-09-14T01:04:10.727Z,8.30
2022-09-14T01:06:47.848Z,9.03
2022-09-14T01:09:28.849Z,8.40
2022-09-14T01:12:10.906Z,8.03
2022-09-14T01:14:45.194Z,7.60
2022-09-14T01:17:21.079Z,8.20
2022-09-14T01:20:21.451Z,7.30
2022-09-14T01:23:00.020Z,8.63
2022-09-14T01:26:04.538Z,6.97
2022-09-14T01:28:40.944Z,7.87
2022-09-14T01:31:14.540Z,6.63
2022-09-14T01:33:49.147Z,7.47
2022-09-14T01:36:18.919Z,8.10
2022-09-14T01:38:51.113Z,7.13
2022-09-14T01:41:23.501Z,7.43
2022-09-14T01:43:57.979Z,6.93
2022-09-14T01:46:31.310Z,7.03
2022-09-14T01:49:04.909Z,6.83
2022-09-14T01:51:37.747Z,7.00
2022-09-14T01:54:11.250Z,6.80
2022-09-14T01:56:43.221Z,6.67
2022-09-14T01:59:18.187Z,6.17
2022-09-14T02:01:51.602Z,6.87
2022-09-14T02:04:27.631Z,6.90
2022-09-14T02:06:56.541Z,6.80
2022-09-14T02:09:26.894Z,6.37
2022-09-14T02:12:00.737Z,6.20
2022-09-14T02:14:31.027Z,6.43
2022-09-14T02:16:59.552Z,6.73
2022-09-14T02:19:30.423Z,6.30
2022-09-14T02:21:58.296Z,6.30
2022-09-14T02:24:26.425Z,7.13
2022-09-14T02:26:56.251Z,6.67
2022-09-14T02:29:24.134Z,6.63
2022-09-14T02:32:04.225Z,7.23
2022-09-14T02:34:40.299Z,7.00
2022-09-14T02:37:14.858Z,7.00
2022-09-14T02:39:53.640Z,6.97
2022-09-14T02:42:30.970Z,6.57
2022-09-14T02:45:04.928Z,6.90
2022-09-14T02:47:46.934Z,5.97
2022-09-14T02:50:23.579Z,6.70
2022-09-14T02:52:58.160Z,6.77
2022-09-14T02:55:30.963Z,6.83
2022-09-14T02:58:07.704Z,6.63
2022-09-14T03:00:38.767Z,7.03
2022-09-14T03:03:09.801Z,7.03
2022-09-14T03:05:38.255Z,6.83
2022-09-14T03:08:06.310Z,7.03
2022-09-14T03:10:35.037Z,7.00
2022-09-14T03:13:02.957Z,6.40
2022-09-14T03:15:31.297Z,6.70
2022-09-14T03:17:59.395Z,6.57
2022-09-14T03:20:32.578Z,7.50
2022-09-14T03:23:01.221Z,6.77
2022-09-14T03:25:29.146Z,7.27
2022-09-14T03:27:59.247Z,6.80
2022-09-14T03:30:27.658Z,6.53
2022-09-14T03:32:55.599Z,7.03
2022-09-14T03:35:23.546Z,6.97
2022-09-14T03:37:53.368Z,7.00
2022-09-14T03:40:22.194Z,7.50
2022-09-14T03:42:52.199Z,8.03
2022-09-14T03:45:21.846Z,6.70
2022-09-14T03:47:49.946Z,6.63
2022-09-14T03:50:19.173Z,6.93
2022-09-14T03:52:47.126Z,6.33
2022-09-14T03:55:16.598Z,6.90
2022-09-14T03:57:44.512Z,6.50
2022-09-14T04:00:12.996Z,7.50
2022-09-14T04:02:41.345Z,7.33
2022-09-14T04:05:09.856Z,7.33
2022-09-14T04:07:37.914Z,7.70
2022-09-14T04:10:07.319Z,7.07
2022-09-14T04:12:37.523Z,6.47
2022-09-14T04:15:06.319Z,6.73
2022-09-14T04:17:34.428Z,7.33
2022-09-14T04:20:04.031Z,7.50
2022-09-14T04:22:31.939Z,7.60
2022-09-14T04:24:59.848Z,7.20
2022-09-14T04:27:27.875Z,6.87
2022-09-14T04:29:57.326Z,6.83
2022-09-14T04:32:25.250Z,7.47
2022-09-14T04:34:53.135Z,6.93
2022-09-14T04:37:21.056Z,6.53
2022-09-14T04:39:48.992Z,6.90
2022-09-14T04:42:16.964Z,6.40
2022-09-14T04:44:44.851Z,7.17
2022-09-14T04:47:14.161Z,7.37
2022-09-14T04:49:42.164Z,7.13
2022-09-14T04:52:10.102Z,7.33
2022-09-14T04:54:38.014Z,8.07
2022-09-14T04:57:06.472Z,7.23
2022-09-14T04:59:34.571Z,7.07
2022-09-14T05:02:02.676Z,7.10
2022-09-14T05:04:32.063Z,7.93
2022-09-14T05:06:59.962Z,7.40
2022-09-14T05:09:27.867Z,7.97
2022-09-14T05:11:55.833Z,7.23
2022-09-14T05:14:23.867Z,7.27
2022-09-14T05:16:51.942Z,7.20
2022-09-14T05:19:19.848Z,7.00
2022-09-14T05:21:49.269Z,7.60
2022-09-14T05:24:18.967Z,8.03
2022-09-14T05:26:47.876Z,7.50
2022-09-14T05:29:17.395Z,6.87
2022-09-14T05:31:46.205Z,7.20
2022-09-14T05:34:14.714Z,7.23
2022-09-14T05:36:42.945Z,6.47
2022-09-14T05:39:12.297Z,7.00
2022-09-14T05:41:40.188Z,6.50
2022-09-14T05:44:08.230Z,6.60
2022-09-14T05:46:36.238Z,5.37
2022-09-14T05:49:04.260Z,6.53
2022-09-14T05:51:32.252Z,6.23
2022-09-14T05:54:00.705Z,6.37
2022-09-14T05:56:31.873Z,5.93
2022-09-14T05:59:00.430Z,6.37
2022-09-14T06:01:30.258Z,6.10
2022-09-14T06:04:00.522Z,5.93
2022-09-14T06:06:28.794Z,5.33
2022-09-14T06:08:57.460Z,6.07
2022-09-14T06:11:26.918Z,6.50
2022-09-14T06:13:56.785Z,6.53
2022-09-14T06:16:26.348Z,6.07
2022-09-14T06:18:56.247Z,6.50
2022-09-14T06:21:24.839Z,6.40
2022-09-14T06:23:52.772Z,5.80
2022-09-14T06:26:20.856Z,6.67
2022-09-14T06:28:49.015Z,5.47
2022-09-14T06:31:22.423Z,5.77
2022-09-14T06:33:51.804Z,6.37
2022-09-14T06:36:22.159Z,6.00
2022-09-14T06:38:50.943Z,6.10
2022-09-14T06:41:21.742Z,5.40
2022-09-14T06:43:50.876Z,5.60
2022-09-14T06:46:21.984Z,6.27
2022-09-14T06:48:52.699Z,6.30
2022-09-14T06:51:22.122Z,6.10
2022-09-14T06:53:50.841Z,5.90
2022-09-14T06:56:19.930Z,6.70
2022-09-14T06:58:48.193Z,6.03
2022-09-14T07:01:17.663Z,6.03
2022-09-14T07:03:47.928Z,6.43
2022-09-14T07:06:17.770Z,6.20
2022-09-14T07:08:46.632Z,5.07
2022-09-14T07:11:17.158Z,5.90
2022-09-14T07:13:46.067Z,4.80
2022-09-14T07:16:14.756Z,4.70
2022-09-14T07:18:43.391Z,4.77
2022-09-14T07:21:15.455Z,5.93
2022-09-14T07:23:45.344Z,5.93
2022-09-14T07:26:16.556Z,5.70
2022-09-14T07:28:46.303Z,5.73
2022-09-14T07:31:21.270Z,5.30
2022-09-14T07:33:50.004Z,6.73
2022-09-14T07:36:19.388Z,5.50
2022-09-14T07:38:54.563Z,6.57
2022-09-14T07:41:23.436Z,6.80
2022-09-14T07:43:51.788Z,6.67
2022-09-14T07:46:20.436Z,6.30
2022-09-14T07:48:50.170Z,6.83
2022-09-14T07:51:19.635Z,6.10
2022-09-14T07:53:47.687Z,5.63
2022-09-14T07:56:16.961Z,6.20
2022-09-14T07:58:45.727Z,6.17
2022-09-14T08:01:15.499Z,5.97
2022-09-14T08:03:44.649Z,5.73
2022-09-14T08:06:15.038Z,6.30
2022-09-14T08:08:46.966Z,5.57
2022-09-14T08:11:16.481Z,6.20
2022-09-14T08:13:46.477Z,6.37
2022-09-14T08:16:15.149Z,6.87
2022-09-14T08:18:43.535Z,5.90
2022-09-14T08:21:13.237Z,6.80
2022-09-14T08:23:42.054Z,6.77
2022-09-14T08:26:14.013Z,6.47
2022-09-14T08:28:42.842Z,5.73
2022-09-14T08:31:12.829Z,6.60
2022-09-14T08:33:43.197Z,5.70
2022-09-14T08:36:13.112Z,6.23
2022-09-14T08:38:41.273Z,6.47
2022-09-14T08:41:19.653Z,5.73
2022-09-14T08:43:48.137Z,5.43
2022-09-14T08:46:27.225Z,4.93
2022-09-14T08:48:55.642Z,5.10
2022-09-14T08:51:24.047Z,5.30
2022-09-14T08:53:53.661Z,5.27
2022-09-14T08:56:26.646Z,5.10
2022-09-14T08:59:19.809Z,5.23
2022-09-14T09:01:55.441Z,4.73
2022-09-14T09:04:38.660Z,5.07
2022-09-14T09:07:15.425Z,5.07
2022-09-14T09:09:46.354Z,5.27
2022-09-14T09:12:18.982Z,4.67
2022-09-14T09:14:51.536Z,5.13
2022-09-14T09:17:24.127Z,4.87
2022-09-14T09:20:01.471Z,4.53
2022-09-14T09:22:34.589Z,5.30
2022-09-14T09:25:05.938Z,4.23
2022-09-14T09:27:35.281Z,4.30
2022-09-14T09:30:03.473Z,4.20
2022-09-14T09:32:31.585Z,5.30
2022-09-14T09:35:01.302Z,4.43
2022-09-14T09:37:35.853Z,4.03
2022-09-14T09:40:09.913Z,4.53
2022-09-14T09:42:39.258Z,4.50
2022-09-14T09:45:08.989Z,4.53
2022-09-14T09:47:39.723Z,4.20
2022-09-14T09:50:18.806Z,4.23
2022-09-14T09:52:51.317Z,4.23
2022-09-14T09:55:21.546Z,3.07
2022-09-14T09:57:50.930Z,3.20
2022-09-14T10:00:24.741Z,3.13
2022-09-14T10:02:54.334Z,3.70
2022-09-14T10:05:25.337Z,3.83
2022-09-14T10:07:59.467Z,3.63
2022-09-14T10:10:43.094Z,3.50
2022-09-14T10:13:23.442Z,3.47
2022-09-14T10:15:51.422Z,3.50
2022-09-14T10:18:20.501Z,3.10
2022-09-14T10:21:07.235Z,2.90
2022-09-14T10:23:37.521Z,2.73
2022-09-14T10:26:27.262Z,3.20
2022-09-14T10:29:25.565Z,2.90
2022-09-14T10:31:54.612Z,3.90
2022-09-14T10:34:22.636Z,2.83
2022-09-14T10:36:57.898Z,2.80
2022-09-14T10:39:29.888Z,2.43
2022-09-14T10:42:16.558Z,2.40
2022-09-14T10:45:00.198Z,2.57
2022-09-14T10:48:04.184Z,2.30
2022-09-14T10:50:43.241Z,2.00
2022-09-14T10:53:22.443Z,2.63
2022-09-14T10:56:00.094Z,2.40
2022-09-14T10:58:56.062Z,2.10
2022-09-14T11:01:36.477Z,2.40
2022-09-14T11:04:25.442Z,2.23
2022-09-14T11:07:02.710Z,2.10
2022-09-14T11:09:37.845Z,1.70
2022-09-14T11:12:11.335Z,1.70
2022-09-14T11:14:51.715Z,2.00
2022-09-14T11:17:46.638Z,1.80
2022-09-14T11:20:26.518Z,1.60
2022-09-14T11:23:04.471Z,1.50
2022-09-14T11:25:39.903Z,1.73
2022-09-14T11:28:15.655Z,1.70
2022-09-14T11:30:48.992Z,2.10
2022-09-14T11:33:24.540Z,2.00
2022-09-14T11:35:58.104Z,1.70
2022-09-14T11:38:29.992Z,2.10
2022-09-14T11:41:06.633Z,2.00
2022-09-14T11:43:44.046Z,1.80
2022-09-14T11:46:17.314Z,2.30
2022-09-14T11:48:53.730Z,1.90
2022-09-14T11:51:25.725Z,2.40
2022-09-14T11:53:54.042Z,2.30
2022-09-14T11:56:26.992Z,2.10
2022-09-14T11:58:57.754Z,1.20
2022-09-14T12:01:35.713Z,1.20
2022-09-14T12:04:16.801Z,1.20
2022-09-14T12:06:56.279Z,1.40
2022-09-14T12:09:53.504Z,1.60
2022-09-14T12:12:36.527Z,1.90
2022-09-14T12:15:14.915Z,1.90
2022-09-14T12:17:45.308Z,1.70
2022-09-14T12:20:43.392Z,1.90
2022-09-14T12:23:20.805Z,1.80
2022-09-14T12:25:58.692Z,2.00
2022-09-14T12:28:40.647Z,1.83
2022-09-14T12:31:13.911Z,1.80
2022-09-14T12:34:06.914Z,1.53
2022-09-14T12:37:06.605Z,1.80
2022-09-14T12:39:37.190Z,1.90
2022-09-14T12:42:25.236Z,1.80
2022-09-14T12:44:53.555Z,1.90
2022-09-14T12:47:58.538Z,1.90
2022-09-14T12:50:31.815Z,1.90
2022-09-14T12:53:16.780Z,1.87
2022-09-14T12:55:53.603Z,1.90
2022-09-14T12:58:45.189Z,1.90
2022-09-14T13:01:27.916Z,1.97
2022-09-14T13:03:57.282Z,1.90
2022-09-14T13:06:29.773Z,1.80
2022-09-14T13:09:00.751Z,1.90
2022-09-14T13:11:33.932Z,1.90
2022-09-14T13:14:03.049Z,1.93
2022-09-14T13:16:40.308Z,1.90
2022-09-14T13:19:20.997Z,1.90
2022-09-14T13:21:50.561Z,1.80
2022-09-14T13:24:32.654Z,1.77
2022-09-14T13:27:03.159Z,1.63
2022-09-14T13:29:32.095Z,1.80
2022-09-14T13:32:03.672Z,1.70
2022-09-14T13:34:36.166Z,1.70
2022-09-14T13:37:06.188Z,1.60
2022-09-14T13:39:38.226Z,1.77
2022-09-14T13:42:07.850Z,1.70
2022-09-14T13:44:42.040Z,1.70
2022-09-14T13:47:13.448Z,1.70
2022-09-14T13:49:42.327Z,1.83
2022-09-14T13:53:00.452Z,1.70
2022-09-14T13:55:29.159Z,1.80
2022-09-14T13:58:20.953Z,1.60
2022-09-14T14:00:55.851Z,1.83
2022-09-14T14:03:30.965Z,1.83
2022-09-14T14:05:59.711Z,1.93
2022-09-14T14:08:35.159Z,1.60
2022-09-14T14:11:07.639Z,1.80
2022-09-14T14:13:38.261Z,1.67
2022-09-14T14:16:20.648Z,1.80
2022-09-14T14:18:53.921Z,1.93
2022-09-14T14:21:32.795Z,1.77
2022-09-14T14:24:27.902Z,1.60
2022-09-14T14:26:58.738Z,1.80
2022-09-14T14:29:27.095Z,1.70
2022-09-14T14:31:57.005Z,1.90
2022-09-14T14:34:27.166Z,1.70
2022-09-14T14:36:56.011Z,1.83
2022-09-14T14:39:25.834Z,1.90
2022-09-14T14:41:54.359Z,1.70
2022-09-14T14:44:28.357Z,1.80
2022-09-14T14:46:57.350Z,1.70
2022-09-14T14:49:25.605Z,1.60
2022-09-14T14:51:53.715Z,1.80
2022-09-14T14:54:21.679Z,1.60
2022-09-14T14:56:51.342Z,1.60
2022-09-14T14:59:29.501Z,1.70
2022-09-14T15:01:58.614Z,1.60
2022-09-14T15:04:26.748Z,1.50
2022-09-14T15:06:55.275Z,1.70
2022-09-14T15:09:25.774Z,1.70
2022-09-14T15:11:54.935Z,1.60
2022-09-14T15:14:27.115Z,1.50
2022-09-14T15:17:00.282Z,1.57
2022-09-14T15:19:29.057Z,1.60
2022-09-14T15:22:01.147Z,1.70
2022-09-14T15:24:30.263Z,1.60
2022-09-14T15:26:59.501Z,1.70
2022-09-14T15:29:27.445Z,1.83
2022-09-14T15:31:56.911Z,1.63
2022-09-14T15:34:25.053Z,1.70
2022-09-14T15:36:55.474Z,1.60
2022-09-14T15:39:25.369Z,1.80
2022-09-14T15:41:54.098Z,1.40
2022-09-14T15:44:22.365Z,1.40
2022-09-14T15:46:51.135Z,1.23
2022-09-14T15:49:22.584Z,1.30
2022-09-14T15:51:53.979Z,1.40
2022-09-14T15:54:24.143Z,1.40
2022-09-14T15:56:53.877Z,1.50
2022-09-14T15:59:22.509Z,1.30
2022-09-14T16:01:50.786Z,1.43
2022-09-14T16:04:21.063Z,1.30
2022-09-14T16:06:49.473Z,1.47
2022-09-14T16:09:20.462Z,1.50
2022-09-14T16:11:48.438Z,1.50
2022-09-14T16:14:16.633Z,1.70
2022-09-14T16:16:44.757Z,1.60
2022-09-14T16:19:15.121Z,1.60
2022-09-14T16:21:44.785Z,1.70
2022-09-14T16:24:15.059Z,1.50
2022-09-14T16:26:43.385Z,1.50
2022-09-14T16:29:13.813Z,1.50
2022-09-14T16:31:43.933Z,1.60
2022-09-14T16:34:14.693Z,1.57
2022-09-14T16:36:45.015Z,1.27
2022-09-14T16:39:16.171Z,1.60
2022-09-14T16:41:44.721Z,1.70
2022-09-14T16:44:15.026Z,1.53
2022-09-14T16:46:43.512Z,1.60
2022-09-14T16:49:11.975Z,1.60
2022-09-14T16:51:40.192Z,1.80
2022-09-14T16:54:10.217Z,1.80
2022-09-14T16:56:45.711Z,1.80
2022-09-14T16:59:14.071Z,1.80
2022-09-14T17:01:44.637Z,1.70
2022-09-14T17:04:15.153Z,1.80
2022-09-14T17:06:44.770Z,1.80
2022-09-14T17:09:16.108Z,1.70
2022-09-14T17:11:44.424Z,1.80
2022-09-14T17:14:15.872Z,1.60
2022-09-14T17:16:44.351Z,1.50
2022-09-14T17:19:13.440Z,1.50
2022-09-14T17:21:42.970Z,1.70
2022-09-14T17:24:11.732Z,1.70
2022-09-14T17:26:41.572Z,1.53
2022-09-14T17:29:10.481Z,1.50
2022-09-14T17:31:40.344Z,1.50
2022-09-14T17:34:10.562Z,1.50
2022-09-14T17:36:39.354Z,1.43
2022-09-14T17:39:11.582Z,1.40
2022-09-14T17:41:42.859Z,1.47
2022-09-14T17:44:12.994Z,1.40
2022-09-14T17:46:49.672Z,1.40
2022-09-14T17:49:21.103Z,1.10
2022-09-14T17:51:49.344Z,1.00
2022-09-14T17:54:17.783Z,1.10
2022-09-14T17:56:47.256Z,1.20
2022-09-14T17:59:17.574Z,0.97
2022-09-14T18:01:45.747Z,1.07
2022-09-14T18:04:15.709Z,0.97
2022-09-14T18:06:46.858Z,0.70
2022-09-14T18:09:18.013Z,1.00
2022-09-14T18:11:47.861Z,0.90
2022-09-14T18:14:16.580Z,0.70
2022-09-14T18:16:45.438Z,0.83
2022-09-14T18:19:14.013Z,1.00
2022-09-14T18:21:42.274Z,0.90
2022-09-14T18:24:11.944Z,0.90
2022-09-14T18:26:40.113Z,0.70
2022-09-14T18:29:09.507Z,0.90
2022-09-14T18:31:38.274Z,0.73
2022-09-14T18:34:08.399Z,0.80
2022-09-14T18:36:37.167Z,0.90
2022-09-14T18:39:05.504Z,0.80
2022-09-14T18:41:34.258Z,1.00
2022-09-14T18:44:03.305Z,0.90
2022-09-14T18:46:33.171Z,0.80
2022-09-14T18:49:03.234Z,0.80
2022-09-14T18:51:34.153Z,0.90
2022-09-14T18:54:06.144Z,0.73
2022-09-14T18:56:35.258Z,0.80
2022-09-14T18:59:04.934Z,0.73
2022-09-14T19:01:35.351Z,0.90
2022-09-14T19:04:04.565Z,0.73
2022-09-14T19:06:34.637Z,0.80
2022-09-14T19:09:02.810Z,1.10
2022-09-14T19:11:32.108Z,0.90
2022-09-14T19:14:01.830Z,0.70
2022-09-14T19:16:31.034Z,0.70
2022-09-14T19:19:00.638Z,0.70
2022-09-14T19:21:31.195Z,0.70
2022-09-14T19:24:00.619Z,0.63
2022-09-14T19:26:31.010Z,0.80
2022-09-14T19:29:01.813Z,0.80
2022-09-14T19:31:31.020Z,0.80
2022-09-14T19:34:01.841Z,0.70
2022-09-14T19:36:30.999Z,0.70
2022-09-14T19:39:02.015Z,0.80
2022-09-14T19:41:30.797Z,1.10
2022-09-14T19:43:59.345Z,0.70
2022-09-14T19:46:28.236Z,1.00
2022-09-14T19:48:56.736Z,0.90
2022-09-14T19:51:28.755Z,0.97
2022-09-14T19:53:59.123Z,0.80
2022-09-14T19:56:29.566Z,0.70
2022-09-14T19:59:00.313Z,0.73
2022-09-14T20:01:29.862Z,0.70
2022-09-14T20:03:58.051Z,0.80
2022-09-14T20:06:31.881Z,0.70
2022-09-14T20:09:01.271Z,0.73
2022-09-14T20:11:31.428Z,0.70
2022-09-14T20:14:01.309Z,0.90
2022-09-14T20:16:32.287Z,0.70
2022-09-14T20:19:05.926Z,0.87
2022-09-14T20:21:37.656Z,0.70
2022-09-14T20:24:16.717Z,0.90
2022-09-14T20:26:46.698Z,0.77
2022-09-14T20:29:16.057Z,0.80
2022-09-14T20:31:45.082Z,0.80
2022-09-14T20:34:13.915Z,0.80
2022-09-14T20:36:43.945Z,0.80
2022-09-14T20:39:12.314Z,0.80
2022-09-14T20:41:41.363Z,0.90
2022-09-14T20:44:09.892Z,0.80
2022-09-14T20:46:47.101Z,0.90
2022-09-14T20:49:17.621Z,0.90
2022-09-14T20:51:47.387Z,0.80
2022-09-14T20:54:18.020Z,1.00
2022-09-14T20:56:47.678Z,1.00
2022-09-14T20:59:18.513Z,1.00
2022-09-14T21:01:49.430Z,0.80
2022-09-14T21:04:19.487Z,0.90
2022-09-14T21:06:53.163Z,1.00
2022-09-14T21:09:24.120Z,0.90
2022-09-14T21:11:52.706Z,0.80
2022-09-14T21:14:21.648Z,0.83
2022-09-14T21:16:53.148Z,0.90
2022-09-14T21:19:23.449Z,0.90
2022-09-14T21:21:53.095Z,0.87
2022-09-14T21:24:22.947Z,0.73
2022-09-14T21:26:51.293Z,0.90
2022-09-14T21:29:23.749Z,0.90
2022-09-14T21:31:52.546Z,0.90
2022-09-14T21:34:20.854Z,0.70
2022-09-14T21:36:51.004Z,0.80
2022-09-14T21:39:23.407Z,0.90
2022-09-14T21:41:57.257Z,0.90
2022-09-14T21:44:30.051Z,0.70
2022-09-14T21:47:05.142Z,0.70
2022-09-14T21:49:33.518Z,0.80
2022-09-14T21:52:01.548Z,0.73
2022-09-14T21:54:30.945Z,0.70
2022-09-14T21:56:58.997Z,0.70
2022-09-14T21:59:26.982Z,0.60
2022-09-14T22:01:55.008Z,0.80
2022-09-14T22:04:25.150Z,0.80
2022-09-14T22:06:53.533Z,0.63
2022-09-14T22:09:23.702Z,0.60
2022-09-14T22:11:53.714Z,0.63
2022-09-14T22:14:23.869Z,0.80
2022-09-14T22:16:52.275Z,0.90
2022-09-14T22:19:23.238Z,0.90
2022-09-14T22:21:52.208Z,0.97
2022-09-14T22:24:22.869Z,0.70
2022-09-14T22:26:52.549Z,0.80
2022-09-14T22:29:20.533Z,0.70
2022-09-14T22:31:48.881Z,0.80
2022-09-14T22:34:17.687Z,0.70
2022-09-14T22:36:46.098Z,0.63
2022-09-14T22:39:14.582Z,0.90
2022-09-14T22:41:42.820Z,0.77
2022-09-14T22:44:13.265Z,0.80
2022-09-14T22:46:41.716Z,0.80
2022-09-14T22:49:09.913Z,0.80
2022-09-14T22:51:38.235Z,0.73
2022-09-14T22:54:06.581Z,0.67
2022-09-14T22:56:36.953Z,0.73
2022-09-14T22:59:07.012Z,0.63
2022-09-14T23:01:39.637Z,0.70
2022-09-14T23:04:10.235Z,0.70
2022-09-14T23:06:40.563Z,0.70
2022-09-14T23:09:10.093Z,0.70
2022-09-14T23:11:38.160Z,0.80
2022-09-14T23:14:06.330Z,0.60
2022-09-14T23:16:34.315Z,0.67
2022-09-14T23:19:06.729Z,0.70
2022-09-14T23:21:35.661Z,0.70
2022-09-14T23:24:06.085Z,0.63
2022-09-14T23:26:34.536Z,0.60
2022-09-14T23:29:04.726Z,0.60
2022-09-14T23:31:33.583Z,0.80
2022-09-14T23:34:04.415Z,0.70
2022-09-14T23:36:32.927Z,0.70
2022-09-14T23:39:01.466Z,0.80
2022-09-14T23:41:29.633Z,0.73
2022-09-14T23:43:57.611Z,0.80
2022-09-14T23:46:26.116Z,0.80
2022-09-14T23:48:54.296Z,0.70
2022-09-14T23:51:23.660Z,0.80
2022-09-14T23:53:54.711Z,0.80
2022-09-14T23:56:22.833Z,0.70
2022-09-14T23:58:51.007Z,0.80
